»·PEaware :: N49LP KNUW-KPWT

N49LP :: KNUW-KPWT

FLIGHT INFORMATION

Flight Status: Arrived
Operator: Privately registered:
United States
More flights under this callsign
Pilot: Les P. (123)
Aircraft: BEECH AIRCRAFT BONANZA
(BE35)
More flights by this aircraft type
Origin: KNUW Whidbey Island NAS
United States
Destination: KPWT Bremerton Natl
United States
More flights between these airports :: More routes between these airports
Route: +PAE
File this flight plan on PilotEdge
Remarks:
Altitude:
(Current/Filed)
5,000ft
Speed:
(Current/Filed)
165kts
Departed: 10-Oct-20 05:29 PM
Arrived: 10-Oct-20 05:55 PM
Distance/Time
Traveled:
52nm/0:26
Distance/Time
To Go:
Arrived

Flight Plot

Page will automatically refresh every two minutes.

Flight plan parsing failed; only flown route is shown


Map Options




Map Legend


Flown Route
Filed Route
Departure Airport
Arrival Airport
Navaid (VOR, NDB)
Fix

Horizontal Profiles

Position Reports

Time Latitude Longitude Heading Altitude Ground
Speed
10-Oct-20 16:32 48.342227 -122.664861 236 50ft 0kts
10-Oct-20 16:33 48.342227 -122.664861 236 50ft 0kts
10-Oct-20 16:34 48.342227 -122.664861 236 50ft 0kts
10-Oct-20 16:35 48.342227 -122.664861 236 50ft 0kts
10-Oct-20 16:36 48.342227 -122.664861 236 50ft 0kts
10-Oct-20 16:37 48.342227 -122.664861 236 50ft 0kts
10-Oct-20 16:38 48.342227 -122.664861 236 50ft 0kts
10-Oct-20 16:39 48.342227 -122.664861 236 50ft 0kts
10-Oct-20 16:39 48.342227 -122.664861 236 50ft 0kts
10-Oct-20 16:41 48.342227 -122.664861 236 50ft 0kts
10-Oct-20 16:41 48.342227 -122.664861 236 50ft 0kts
10-Oct-20 16:43 48.342227 -122.664861 236 50ft 0kts
10-Oct-20 16:43 48.342227 -122.664861 236 50ft 0kts
10-Oct-20 16:45 48.342227 -122.664861 236 50ft 0kts
10-Oct-20 16:45 48.342227 -122.664861 236 50ft 0kts
10-Oct-20 16:46 48.342227 -122.664861 236 50ft 0kts
10-Oct-20 16:47 48.342227 -122.664861 236 50ft 0kts
10-Oct-20 16:48 48.342227 -122.664861 236 50ft 0kts
10-Oct-20 16:49 48.342227 -122.664861 236 50ft 0kts
10-Oct-20 16:50 48.342227 -122.664861 236 50ft 0kts
10-Oct-20 16:51 48.342227 -122.664861 236 50ft 0kts
10-Oct-20 16:52 48.342227 -122.664861 236 50ft 0kts
10-Oct-20 16:53 48.342227 -122.664861 236 50ft 0kts
10-Oct-20 16:54 48.342227 -122.664861 236 50ft 0kts
10-Oct-20 16:55 48.342227 -122.664861 236 50ft 0kts
10-Oct-20 16:56 48.342227 -122.664861 236 50ft 0kts
10-Oct-20 16:57 48.342227 -122.664861 236 50ft 0kts
10-Oct-20 16:58 48.342227 -122.664861 236 50ft 0kts
10-Oct-20 16:59 48.342227 -122.664861 236 50ft 0kts
10-Oct-20 17:00 48.342227 -122.664861 236 50ft 0kts
10-Oct-20 17:01 48.342227 -122.664861 236 50ft 0kts
10-Oct-20 17:02 48.342227 -122.664861 236 50ft 0kts
10-Oct-20 17:03 48.342227 -122.664861 236 50ft 0kts
10-Oct-20 17:04 48.342227 -122.664861 236 50ft 0kts
10-Oct-20 17:05 48.342227 -122.664861 236 50ft 0kts
10-Oct-20 17:06 48.342227 -122.664861 236 50ft 0kts
10-Oct-20 17:07 48.342227 -122.664861 236 50ft 0kts
10-Oct-20 17:08 48.342227 -122.664861 236 50ft 0kts
10-Oct-20 17:09 48.342227 -122.664862 236 50ft 0kts
10-Oct-20 17:10 48.342225 -122.664865 236 50ft 0kts
10-Oct-20 17:11 48.342224 -122.664868 236 50ft 0kts
10-Oct-20 17:12 48.342223 -122.664871 236 50ft 0kts
10-Oct-20 17:13 48.342221 -122.664874 236 50ft 0kts
10-Oct-20 17:14 48.342220 -122.664877 236 50ft 0kts
10-Oct-20 17:15 48.342219 -122.664880 236 50ft 0kts
10-Oct-20 17:16 48.342218 -122.664883 236 50ft 0kts
10-Oct-20 17:17 48.342216 -122.664886 236 50ft 0kts
10-Oct-20 17:18 48.342215 -122.664889 236 50ft 0kts
10-Oct-20 17:19 48.343218 -122.665135 7 50ft 12kts
10-Oct-20 17:20 48.345322 -122.662214 70 50ft 21kts
10-Oct-20 17:21 48.347832 -122.653470 52 50ft 21kts
10-Oct-20 17:22 48.350352 -122.646746 85 50ft 20kts
10-Oct-20 17:23 48.350876 -122.640260 353 50ft 0kts
10-Oct-20 17:24 48.350878 -122.640260 353 50ft 0kts
10-Oct-20 17:25 48.350883 -122.640261 353 50ft 0kts
10-Oct-20 17:26 48.351100 -122.640300 352 50ft 8kts
10-Oct-20 17:27 48.352365 -122.642050 264 50ft 11kts
10-Oct-20 17:28 48.351439 -122.671542 268 505ft 105kts
10-Oct-20 17:29 48.344423 -122.710401 194 1841ft 110kts
10-Oct-20 17:30 48.322875 -122.681407 105 2906ft 115kts
10-Oct-20 17:31 48.307683 -122.639363 124 3817ft 116kts
10-Oct-20 17:32 48.281508 -122.628785 191 4683ft 103kts
10-Oct-20 17:33 48.249446 -122.634238 191 4994ft 137kts
10-Oct-20 17:34 48.208541 -122.641380 190 4986ft 151kts
10-Oct-20 17:35 48.166682 -122.648677 190 4993ft 151kts
10-Oct-20 17:36 48.124767 -122.655943 190 5003ft 151kts
10-Oct-20 17:37 48.082892 -122.663224 190 5008ft 151kts
10-Oct-20 17:38 48.040919 -122.670397 186 5011ft 152kts
10-Oct-20 17:39 48.001204 -122.643856 156 5008ft 158kts
10-Oct-20 17:40 47.962000 -122.613338 156 5007ft 159kts
10-Oct-20 17:41 47.922487 -122.583618 157 5019ft 159kts
10-Oct-20 17:42 47.881915 -122.557357 168 5008ft 157kts
10-Oct-20 17:43 47.838865 -122.550110 186 4689ft 163kts
10-Oct-20 17:44 47.792832 -122.552619 187 4045ft 165kts
10-Oct-20 17:45 47.746848 -122.555501 187 3453ft 165kts
10-Oct-20 17:46 47.701523 -122.558382 201 3020ft 154kts
10-Oct-20 17:47 47.665625 -122.584961 218 3008ft 138kts
10-Oct-20 17:48 47.633886 -122.616285 220 3002ft 135kts
10-Oct-20 17:49 47.602977 -122.647962 220 2972ft 137kts
10-Oct-20 17:50 47.568392 -122.681154 217 2325ft 144kts
10-Oct-20 17:51 47.538097 -122.715882 221 1357ft 128kts
10-Oct-20 17:52 47.514160 -122.741605 216 867ft 84kts
10-Oct-20 17:53 47.496130 -122.759158 213 458ft 69kts
10-Oct-20 17:54 47.488408 -122.767136 312 442ft 9kts
10-Oct-20 17:55 47.488947 -122.767740 323 442ft 0kts
10-Oct-20 17:56 47.506420 -122.749133 216 652ft 79kts
10-Oct-20 17:57 47.490963 -122.764321 213 442ft 37kts
10-Oct-20 17:58 47.488916 -122.767707 324 442ft 0kts
10-Oct-20 17:59 47.489922 -122.767064 32 442ft 14kts
10-Oct-20 18:00 47.492645 -122.765724 17 442ft 10kts
10-Oct-20 18:01 47.493784 -122.764554 132 442ft 0kts
10-Oct-20 18:02 47.493783 -122.764551 132 442ft 0kts
10-Oct-20 18:03 47.493783 -122.764551 132 442ft 0kts

Navigation Log

Ident Type
Flight plan parsing failed, navigation log unavailable